Time;durP1;ratioP1;P1;durP2;ratioP2;P2;SDS_P1;SDS_P2;PMS_P1;PMS_P2;Temp;Humidity;BMP_temperature;BMP_pressure;BME280_temperature;BME280_humidity;BME280_pressure;Samples;Min_cycle;Max_cycle;Signal;HPM_P1;HPM_P2
2021/08/27 00:00:42;;;;;;;;;5.67;4.00;;;;;20.35;50.90;101291.66;5063329;28;45465;-52
2021/08/27 00:03:08;;;;;;;;;6.00;6.00;;;;;20.31;50.90;101300.84;5055393;28;46838;-54
2021/08/27 00:05:33;;;;;;;;;5.00;5.00;;;;;20.29;50.70;101294.69;5050491;28;45478;-53
2021/08/27 00:07:59;;;;;;;;;6.00;5.00;;;;;20.32;50.98;101288.25;5053098;28;45447;-53
2021/08/27 00:10:24;;;;;;;;;7.00;7.00;;;;;20.32;51.13;101288.25;5055000;28;45582;-53
2021/08/27 00:12:51;;;;;;;;;3.67;3.67;;;;;20.33;50.73;101287.28;5056057;27;46742;-54
2021/08/27 00:15:16;;;;;;;;;6.67;6.67;;;;;20.33;50.80;101289.97;5058972;28;45384;-51
2021/08/27 00:17:42;;;;;;;;;6.67;5.00;;;;;20.31;50.99;101284.69;5091240;27;45364;-53
2021/08/27 00:20:08;;;;;;;;;5.33;5.33;;;;;20.31;50.91;101284.69;5059099;28;45504;-51
2021/08/27 00:22:34;;;;;;;;;7.33;5.33;;;;;20.29;50.86;101276.69;5058409;28;47412;-54
2021/08/27 00:25:00;;;;;;;;;5.67;4.33;;;;;20.28;51.30;101276.75;5058381;28;45362;-53
2021/08/27 00:27:25;;;;;;;;;6.67;6.00;;;;;20.28;51.45;101284.84;5058591;28;45480;-53
2021/08/27 00:29:51;;;;;;;;;4.67;4.67;;;;;20.27;51.40;101277.72;5059072;28;45641;-54
2021/08/27 00:32:17;;;;;;;;;9.67;6.33;;;;;20.26;51.26;101282.25;5057053;28;46117;-50
2021/08/27 00:34:42;;;;;;;;;4.33;4.00;;;;;20.25;51.34;101275.09;5037084;28;45401;-54
2021/08/27 00:37:08;;;;;;;;;5.00;5.00;;;;;20.21;51.29;101278.94;5057678;28;45581;-54
2021/08/27 00:39:33;;;;;;;;;6.00;6.00;;;;;20.17;51.33;101269.25;5057415;28;45378;-52
2021/08/27 00:41:59;;;;;;;;;6.67;5.67;;;;;20.16;51.31;101272.88;5057914;28;47383;-53
2021/08/27 00:44:25;;;;;;;;;3.33;3.33;;;;;20.12;51.12;101265.06;5057722;28;45756;-54
2021/08/27 00:46:51;;;;;;;;;5.00;4.67;;;;;20.09;51.84;101274.19;5053676;28;45558;-52
2021/08/27 00:49:16;;;;;;;;;5.00;4.67;;;;;20.06;51.50;101271.63;5053387;28;45381;-51
2021/08/27 00:51:43;;;;;;;;;7.00;6.33;;;;;20.03;52.02;101269.09;5058735;28;48581;-50
2021/08/27 00:54:09;;;;;;;;;8.33;6.67;;;;;20.03;51.82;101279.00;5057080;28;45944;-54
2021/08/27 00:56:35;;;;;;;;;3.67;3.67;;;;;20.04;51.84;101265.44;5058942;28;45377;-52
2021/08/27 00:59:01;;;;;;;;;9.00;6.00;;;;;20.04;51.94;101270.84;5058301;28;45298;-51
2021/08/27 01:01:27;;;;;;;;;7.67;5.00;;;;;20.03;52.03;101276.31;5050352;28;46937;-51
2021/08/27 01:03:55;;;;;;;;;5.00;5.00;;;;;20.02;52.11;101263.78;5056366;28;45291;-52
2021/08/27 01:06:24;;;;;;;;;8.00;8.00;;;;;19.99;52.17;101265.69;5058279;28;45332;-52
2021/08/27 01:08:57;;;;;;;;;6.00;6.00;;;;;19.96;51.83;101263.19;5051339;28;45682;-50
2021/08/27 01:11:32;;;;;;;;;5.00;5.00;;;;;19.96;52.08;101256.91;5056574;28;47307;-52
2021/08/27 01:14:02;;;;;;;;;6.00;5.33;;;;;19.90;51.94;101263.47;5057858;28;46306;-48
2021/08/27 01:16:35;;;;;;;;;5.67;5.67;;;;;19.87;52.55;101258.25;5058093;28;45524;-52
2021/08/27 01:19:16;;;;;;;;;5.00;5.00;;;;;19.84;52.54;101260.25;5056488;28;45639;-51
2021/08/27 01:21:57;;;;;;;;;7.67;7.00;;;;;19.78;52.32;101264.09;5069950;28;47229;-49
2021/08/27 01:24:27;;;;;;;;;7.67;6.00;;;;;19.74;52.80;101261.66;5051546;28;45776;-52
2021/08/27 01:26:57;;;;;;;;;5.33;4.33;;;;;19.71;52.57;101264.53;5057977;28;45561;-52
2021/08/27 01:29:56;;;;;;;;;8.33;7.00;;;;;19.67;52.60;101250.31;5058006;28;45704;-52
2021/08/27 01:33:00;;;;;;;;;5.00;5.00;;;;;19.61;52.73;101253.34;5046439;28;47187;-53
2021/08/27 01:35:30;;;;;;;;;6.00;5.00;;;;;19.55;53.02;101261.69;5053029;28;45415;-53
2021/08/27 01:37:58;;;;;;;;;6.00;6.00;;;;;19.52;53.18;101256.44;5061139;28;45298;-50
2021/08/27 01:40:27;;;;;;;;;4.67;4.33;;;;;19.48;53.15;101257.56;5061544;28;44793;-52
2021/08/27 01:42:54;;;;;;;;;5.00;5.00;;;;;19.46;53.33;101254.94;5060922;28;45500;-51
2021/08/27 01:45:21;;;;;;;;;5.00;5.00;;;;;19.45;53.31;101261.28;5059869;28;45697;-53
2021/08/27 01:47:47;;;;;;;;;5.00;4.00;;;;;19.44;53.88;101262.22;5060904;28;45720;-53
2021/08/27 01:50:13;;;;;;;;;5.33;5.33;;;;;19.45;53.60;101255.91;5061305;28;45286;-53
2021/08/27 01:52:41;;;;;;;;;5.00;4.67;;;;;19.47;53.71;101256.69;5061543;28;47467;-53
2021/08/27 01:55:08;;;;;;;;;7.00;7.00;;;;;19.48;53.57;101261.13;5056453;28;46314;-53
2021/08/27 01:57:35;;;;;;;;;4.67;4.00;;;;;19.50;53.65;101261.03;5058386;28;45341;-52
2021/08/27 02:00:03;;;;;;;;;6.00;6.00;;;;;19.48;53.47;101258.44;5078175;27;45317;-53
2021/08/27 02:02:29;;;;;;;;;6.00;5.00;;;;;19.46;53.66;101257.66;5059020;28;45601;-51
2021/08/27 02:04:59;;;;;;;;;6.00;6.00;;;;;19.46;53.53;101262.16;5056514;28;45803;-52
2021/08/27 02:07:25;;;;;;;;;6.67;5.33;;;;;19.47;53.92;101255.81;5060096;28;46224;-53
2021/08/27 02:09:54;;;;;;;;;6.67;5.67;;;;;19.45;53.80;101266.66;5061441;28;45348;-52
2021/08/27 02:12:20;;;;;;;;;6.00;5.00;;;;;19.45;53.94;101261.28;5053996;28;47252;-52
2021/08/27 02:14:49;;;;;;;;;6.00;6.00;;;;;19.46;53.82;101260.34;5059985;28;45329;-51
2021/08/27 02:17:14;;;;;;;;;7.33;6.67;;;;;19.47;53.97;101263.91;5057520;28;45738;-52
2021/08/27 02:19:40;;;;;;;;;4.67;4.00;;;;;19.49;54.03;101259.31;5060592;28;45385;-51
2021/08/27 02:22:11;;;;;;;;;7.67;6.00;;;;;19.48;54.15;101265.63;5060247;28;48284;-49
2021/08/27 02:25:15;;;;;;;;;6.33;6.33;;;;;19.48;54.03;101271.03;5060572;28;45445;-53
2021/08/27 02:27:43;;;;;;;;;6.00;6.00;;;;;19.49;54.00;101272.75;5060612;27;45419;-52
2021/08/27 02:30:10;;;;;;;;;10.00;7.67;;;;;19.48;54.18;101271.88;5050971;28;45403;-55
2021/08/27 02:32:37;;;;;;;;;8.33;7.67;;;;;19.48;54.14;101265.63;5088167;27;47966;-53
2021/08/27 02:35:05;;;;;;;;;8.67;7.67;;;;;19.49;54.03;101268.25;5075992;28;46078;-50
2021/08/27 02:37:33;;;;;;;;;7.67;5.67;;;;;19.52;54.18;101270.78;5072794;28;45421;-52
2021/08/27 02:39:59;;;;;;;;;10.00;7.67;;;;;19.53;54.15;101261.75;5047394;28;45562;-53
2021/08/27 02:42:31;;;;;;;;;8.67;7.67;;;;;19.56;53.81;101266.13;5055835;28;48631;-53
2021/08/27 02:44:58;;;;;;;;;8.00;8.00;;;;;19.58;54.13;101266.97;5068522;27;45365;-51
2021/08/27 02:47:25;;;;;;;;;7.00;6.67;;;;;19.56;53.82;101268.84;5053562;28;45312;-52
2021/08/27 02:49:51;;;;;;;;;9.00;8.33;;;;;19.55;54.08;101261.69;5054717;28;45567;-53
2021/08/27 02:52:26;;;;;;;;;7.67;7.67;;;;;19.54;54.28;101274.25;5060112;28;48497;-54
2021/08/27 02:55:03;;;;;;;;;6.00;6.00;;;;;19.51;53.87;101269.03;5047017;28;45485;-50
2021/08/27 02:57:35;;;;;;;;;5.00;5.00;;;;;19.48;54.18;101266.50;5060365;28;45444;-49
2021/08/27 03:00:01;;;;;;;;;5.67;5.67;;;;;19.46;54.10;101271.09;5060413;28;45461;-51
2021/08/27 03:02:28;;;;;;;;;7.00;6.00;;;;;19.46;54.46;101263.03;5046707;28;46984;-53
2021/08/27 03:05:07;;;;;;;;;6.00;5.00;;;;;19.48;54.34;101265.63;5052321;28;45896;-51
2021/08/27 03:07:37;;;;;;;;;5.67;5.00;;;;;19.48;54.57;101265.63;5057772;28;45404;-50
2021/08/27 03:10:08;;;;;;;;;6.00;4.00;;;;;19.49;54.37;101268.25;5053207;28;45294;-53
2021/08/27 03:12:56;;;;;;;;;5.33;5.33;;;;;19.49;54.50;101259.31;5059159;28;48013;-52
2021/08/27 03:15:59;;;;;;;;;9.00;6.67;;;;;19.47;54.43;101264.78;5059242;28;45626;-51
2021/08/27 03:18:40;;;;;;;;;7.00;6.00;;;;;19.47;54.38;101256.69;5047241;28;45523;-51
2021/08/27 03:21:14;;;;;;;;;5.33;5.33;;;;;19.49;54.71;101257.47;5058389;28;45437;-53
2021/08/27 03:23:41;;;;;;;;;5.67;5.67;;;;;19.52;54.66;101260.00;5055948;28;48481;-51
2021/08/27 03:26:14;;;;;;;;;7.00;5.67;;;;;19.54;54.31;101254.53;5051808;28;45928;-51
2021/08/27 03:28:45;;;;;;;;;6.33;6.00;;;;;19.54;54.33;101258.09;5058239;28;45453;-50
2021/08/27 03:31:12;;;;;;;;;6.00;4.67;;;;;19.54;54.65;101258.09;5073646;28;45468;-52
2021/08/27 03:33:39;;;;;;;;;6.00;5.00;;;;;19.54;54.76;101254.53;5059231;28;47369;-51
2021/08/27 03:36:05;;;;;;;;;9.00;6.00;;;;;19.54;54.45;101258.09;5058052;28;46018;-52
2021/08/27 03:38:31;;;;;;;;;7.33;7.33;;;;;19.54;54.37;101258.09;5059291;28;45359;-53
2021/08/27 03:40:57;;;;;;;;;11.33;8.33;;;;;19.54;54.71;101255.41;5059007;28;45484;-52
2021/08/27 03:43:25;;;;;;;;;7.00;7.00;;;;;19.56;54.45;101258.06;5059276;28;46417;-52
2021/08/27 03:45:52;;;;;;;;;7.00;7.00;;;;;19.57;54.69;101259.84;5059524;28;45709;-49
2021/08/27 03:48:19;;;;;;;;;9.00;8.00;;;;;19.57;54.76;101260.69;5055747;28;45517;-53
2021/08/27 03:50:48;;;;;;;;;5.00;5.00;;;;;19.58;54.63;101261.56;5058657;28;45509;-52
2021/08/27 03:53:14;;;;;;;;;7.33;7.00;;;;;19.57;54.52;101265.22;5046411;28;45726;-50
2021/08/27 03:55:40;;;;;;;;;7.00;7.00;;;;;19.55;54.66;101256.31;5052823;28;46024;-48
2021/08/27 03:58:08;;;;;;;;;9.00;9.00;;;;;19.54;54.97;101252.72;5059031;28;45800;-50
2021/08/27 04:00:34;;;;;;;;;8.67;7.67;;;;;19.57;54.95;101249.94;5070790;28;45607;-50
2021/08/27 04:03:00;;;;;;;;;9.00;7.67;;;;;19.55;54.99;101254.50;5054315;28;47072;-52
2021/08/27 04:05:25;;;;;;;;;8.00;7.00;;;;;19.57;55.07;101251.75;5053782;28;45302;-53
2021/08/27 04:07:51;;;;;;;;;8.33;6.33;;;;;19.56;55.05;101249.97;5055279;28;45380;-53
2021/08/27 04:10:20;;;;;;;;;9.33;7.33;;;;;19.54;54.78;101250.03;5091600;27;45590;-51
2021/08/27 04:12:46;;;;;;;;;9.50;8.00;;;;;19.54;54.79;101251.84;5058429;28;47186;-50
2021/08/27 04:15:15;;;;;;;;;9.33;8.00;;;;;19.54;54.95;101250.03;5055593;28;45605;-49
2021/08/27 04:17:41;;;;;;;;;5.00;5.00;;;;;19.56;54.94;101244.59;5057431;28;45492;-48
2021/08/27 04:20:10;;;;;;;;;9.00;8.67;;;;;19.58;55.15;101248.13;5059071;28;45799;-47
2021/08/27 04:22:36;;;;;;;;;8.33;8.33;;;;;19.60;55.46;101247.09;5057345;28;47329;-49
2021/08/27 04:25:02;;;;;;;;;6.00;6.00;;;;;19.60;55.47;101249.78;5056127;28;45303;-61
2021/08/27 04:27:28;;;;;;;;;8.00;6.67;;;;;19.62;55.22;101239.78;5053887;28;45526;-62
2021/08/27 04:29:53;;;;;;;;;10.33;9.33;;;;;19.62;55.17;101250.56;5057937;28;45349;-62
2021/08/27 04:32:20;;;;;;;;;8.33;6.33;;;;;19.63;54.95;101246.91;5077633;27;47312;-62
2021/08/27 04:34:45;;;;;;;;;11.00;10.00;;;;;19.63;54.98;101246.03;5058649;28;46279;-62
2021/08/27 04:37:11;;;;;;;;;10.00;9.00;;;;;19.65;55.11;101252.22;5057552;28;45484;-62
2021/08/27 04:39:37;;;;;;;;;8.33;7.00;;;;;19.68;55.40;101252.06;5053090;28;45425;-62
2021/08/27 04:42:03;;;;;;;;;7.67;7.67;;;;;19.72;55.58;101252.78;5047383;28;48187;-62
2021/08/27 04:44:29;;;;;;;;;10.00;9.00;;;;;19.77;55.29;101253.41;5059084;28;45833;-62
2021/08/27 04:46:55;;;;;;;;;9.67;8.67;;;;;19.77;54.92;101256.97;5058406;28;45387;-62
2021/08/27 04:49:21;;;;;;;;;8.33;8.33;;;;;19.77;55.51;101259.66;5056133;28;45876;-62
2021/08/27 04:51:46;;;;;;;;;9.33;8.00;;;;;19.79;55.14;101259.59;5058210;28;47978;-62
2021/08/27 04:54:12;;;;;;;;;6.00;6.00;;;;;19.81;54.91;101263.06;5055832;28;45440;-62
2021/08/27 04:56:37;;;;;;;;;8.33;7.67;;;;;19.81;55.22;101263.94;5091343;27;45364;-62
2021/08/27 04:59:02;;;;;;;;;6.67;6.67;;;;;19.86;55.06;101266.41;5060033;28;45270;-62
2021/08/27 05:01:28;;;;;;;;;7.67;7.67;;;;;19.88;55.20;101267.22;5057871;28;46821;-61
2021/08/27 05:03:53;;;;;;;;;6.33;6.00;;;;;19.92;55.44;101274.16;5054180;28;45448;-63
2021/08/27 05:06:19;;;;;;;;;10.33;6.67;;;;;19.94;55.51;101274.97;5055783;28;45367;-61
2021/08/27 05:08:44;;;;;;;;;7.25;7.25;;;;;19.94;55.04;101281.22;5057130;28;46289;-62
2021/08/27 05:11:10;;;;;;;;;9.00;7.00;;;;;19.96;54.99;101287.41;5057359;28;48481;-62
2021/08/27 05:13:36;;;;;;;;;6.50;6.50;;;;;19.95;55.13;101282.13;5060071;28;45512;-61
2021/08/27 05:16:02;;;;;;;;;8.00;6.75;;;;;19.95;55.30;101283.00;5061059;28;45429;-62
2021/08/27 05:18:29;;;;;;;;;6.75;5.75;;;;;19.94;54.92;101286.59;5059292;28;45693;-61
2021/08/27 05:20:58;;;;;;;;;8.75;8.50;;;;;19.92;55.07;101285.81;5056574;28;47038;-62
2021/08/27 05:23:23;;;;;;;;;10.25;9.75;;;;;19.92;55.48;101288.50;5060497;28;45399;-62
2021/08/27 05:25:49;;;;;;;;;11.25;10.25;;;;;19.89;55.48;101291.38;5060944;28;45340;-61
2021/08/27 05:28:15;;;;;;;;;11.50;11.50;;;;;19.92;55.71;101295.72;5061128;28;45271;-62
2021/08/27 05:30:41;;;;;;;;;12.25;12.00;;;;;19.92;55.21;101293.91;5060570;28;47240;-62
2021/08/27 05:33:06;;;;;;;;;8.00;8.00;;;;;19.92;55.54;101295.72;5060477;28;45624;-62
2021/08/27 05:35:32;;;;;;;;;8.25;6.75;;;;;19.91;55.58;101302.94;5060296;28;45440;-62
2021/08/27 05:37:57;;;;;;;;;7.75;7.75;;;;;19.92;55.20;101301.97;5055439;28;45677;-62
2021/08/27 05:40:23;;;;;;;;;13.25;10.75;;;;;19.93;55.44;101305.53;5060603;28;46060;-62
2021/08/27 05:42:48;;;;;;;;;11.50;10.50;;;;;19.96;55.60;101300.03;5058779;27;45696;-61
2021/08/27 05:45:15;;;;;;;;;8.00;8.00;;;;;19.98;55.28;101312.47;5059124;28;45473;-61
2021/08/27 05:47:42;;;;;;;;;8.25;8.25;;;;;19.99;55.47;101310.63;5058118;28;45395;-62
2021/08/27 05:50:08;;;;;;;;;9.00;9.00;;;;;20.01;55.70;101314.13;5058785;28;48421;-63
2021/08/27 05:52:35;;;;;;;;;8.50;8.00;;;;;20.04;55.88;101313.94;5059209;28;45900;-62
2021/08/27 05:55:00;;;;;;;;;9.00;8.00;;;;;20.07;55.62;101311.09;5059091;28;45916;-62
2021/08/27 05:57:26;;;;;;;;;14.00;8.75;;;;;20.09;55.91;101313.72;5060474;28;45603;-62
2021/08/27 05:59:52;;;;;;;;;8.00;8.00;;;;;20.13;55.50;101318.88;5060550;28;47313;-62
2021/08/27 06:02:19;;;;;;;;;11.00;10.00;;;;;20.09;55.46;101317.28;5059569;28;47003;-62
2021/08/27 06:04:44;;;;;;;;;9.50;9.25;;;;;20.07;55.87;101318.31;5051700;28;45662;-62
2021/08/27 06:07:10;;;;;;;;;10.00;9.00;;;;;20.05;55.37;101326.47;5059824;28;45378;-63
2021/08/27 06:09:35;;;;;;;;;10.25;9.25;;;;;20.06;55.87;101324.66;5059930;28;47258;-63
2021/08/27 06:12:01;;;;;;;;;10.25;9.75;;;;;20.07;56.03;101329.06;5059701;28;45720;-64
2021/08/27 06:14:26;;;;;;;;;15.50;13.25;;;;;20.05;55.82;101333.69;5057021;28;46306;-61
2021/08/27 06:16:52;;;;;;;;;10.00;9.00;;;;;20.05;55.57;101330.97;5059729;28;45828;-63
2021/08/27 06:19:17;;;;;;;;;12.00;9.50;;;;;20.07;55.96;101329.06;5059702;28;48219;-55
2021/08/27 06:21:43;;;;;;;;;9.00;9.00;;;;;20.07;55.55;101332.63;5058330;28;45448;-54
2021/08/27 06:24:08;;;;;;;;;13.33;11.33;;;;;20.05;56.19;101329.16;5057330;28;45611;-53
2021/08/27 06:26:34;;;;;;;;;13.00;12.67;;;;;20.03;56.03;101333.75;5056484;28;45492;-52
2021/08/27 06:29:03;;;;;;;;;3.00;2.33;;;;;19.99;55.79;101333.06;5059387;28;45795;-51
2021/08/27 06:31:29;;;;;;;;;8.67;8.67;;;;;19.93;55.80;101341.44;5057701;28;45398;-52
2021/08/27 06:33:54;;;;;;;;;14.00;11.67;;;;;19.88;55.97;101339.94;5075688;28;45618;-54
2021/08/27 06:36:20;;;;;;;;;11.67;10.67;;;;;19.86;56.12;101340.00;5059914;28;45432;-52
2021/08/27 06:38:45;;;;;;;;;14.50;11.50;;;;;19.87;55.94;101352.53;5059232;28;46712;-52
2021/08/27 06:41:11;;;;;;;;;17.00;11.00;;;;;19.89;56.14;101349.75;5057613;28;45353;-51
2021/08/27 06:43:40;;;;;;;;;11.67;11.67;;;;;19.92;56.69;101349.59;5059668;28;45469;-52
2021/08/27 06:46:09;;;;;;;;;11.67;11.00;;;;;19.95;56.33;101358.41;5085496;27;45492;-53
2021/08/27 06:48:35;;;;;;;;;14.67;9.33;;;;;19.97;56.11;101353.81;5072251;28;47258;-48
2021/08/27 06:51:01;;;;;;;;;13.33;10.00;;;;;19.96;56.51;101349.38;5058572;28;45761;-53
2021/08/27 06:53:27;;;;;;;;;14.00;12.50;;;;;19.93;56.30;101356.72;5057583;28;45398;-53
2021/08/27 06:55:53;;;;;;;;;16.00;11.33;;;;;19.90;56.51;101355.06;5059068;28;45464;-53
2021/08/27 06:58:19;;;;;;;;;14.33;13.00;;;;;19.92;56.58;101357.69;5058183;28;46753;-51
2021/08/27 07:00:44;;;;;;;;;12.50;10.50;;;;;19.92;56.80;101360.38;5057405;28;45570;-54
2021/08/27 07:03:10;;;;;;;;;15.25;14.25;;;;;19.92;56.39;101357.69;5057165;28;45534;-53
2021/08/27 07:05:35;;;;;;;;;14.25;13.25;;;;;19.91;56.44;101369.41;5059559;28;45512;-55
2021/08/27 07:08:01;;;;;;;;;15.25;15.00;;;;;19.88;56.95;101361.47;5058925;28;47042;-55
2021/08/27 07:10:27;;;;;;;;;16.00;14.67;;;;;19.87;56.86;101373.22;5059087;28;45361;-53
2021/08/27 07:12:54;;;;;;;;;12.25;12.25;;;;;19.86;56.75;101377.72;5055623;28;45584;-53
2021/08/27 07:15:20;;;;;;;;;16.25;13.75;;;;;19.87;56.74;101374.09;5057771;28;45550;-54
2021/08/27 07:17:46;;;;;;;;;15.25;12.00;;;;;19.86;56.87;101376.84;5058506;28;47303;-53
2021/08/27 07:20:13;;;;;;;;;13.00;12.00;;;;;19.86;56.84;101379.56;5058152;28;45841;-53
2021/08/27 07:22:40;;;;;;;;;13.75;13.75;;;;;19.89;56.63;101374.00;5051803;28;45401;-52
2021/08/27 07:25:06;;;;;;;;;15.00;14.50;;;;;19.93;57.02;101378.28;5074290;28;45507;-54
2021/08/27 07:27:32;;;;;;;;;15.00;15.00;;;;;20.01;57.08;101384.16;5058783;28;45603;-55
2021/08/27 07:29:57;;;;;;;;;18.50;16.50;;;;;20.10;56.63;101383.72;5058659;28;45809;-53
2021/08/27 07:32:23;;;;;;;;;15.25;12.50;;;;;20.20;56.81;101386.78;5053998;28;45557;-54
2021/08/27 07:34:49;;;;;;;;;14.33;11.00;;;;;20.26;56.14;101387.34;5060201;28;45868;-54
2021/08/27 07:37:14;;;;;;;;;21.00;20.00;;;;;20.33;56.38;101384.34;5054014;28;47342;-54
2021/08/27 07:39:40;;;;;;;;;18.25;16.00;;;;;20.36;55.88;101382.38;5054048;28;45629;-53
2021/08/27 07:42:08;;;;;;;;;15.25;13.00;;;;;20.36;56.01;101385.06;5056931;28;45776;-53
2021/08/27 07:44:33;;;;;;;;;13.75;12.50;;;;;20.35;55.96;101388.72;5057867;28;45583;-55
2021/08/27 07:46:59;;;;;;;;;14.00;12.67;;;;;20.36;55.69;101387.75;5057093;28;47214;-55
2021/08/27 07:49:25;;;;;;;;;14.50;14.00;;;;;20.38;55.79;101393.06;5053256;28;45545;-51
2021/08/27 07:51:51;;;;;;;;;15.25;14.25;;;;;20.44;55.25;101385.56;5054916;28;45445;-54
2021/08/27 07:54:18;;;;;;;;;9.00;9.00;;;;;20.49;55.39;101386.22;5057615;28;45777;-56
2021/08/27 07:56:44;;;;;;;;;10.25;10.25;;;;;20.55;54.76;101390.38;5057989;28;45425;-54
2021/08/27 07:59:10;;;;;;;;;15.33;12.33;;;;;20.61;54.73;101392.78;5059067;28;45445;-53
2021/08/27 08:01:36;;;;;;;;;12.67;11.67;;;;;20.67;54.90;101397.84;5054115;28;45543;-55
2021/08/27 08:04:03;;;;;;;;;11.33;10.00;;;;;20.72;54.68;101394.91;5059117;28;45586;-54
2021/08/27 08:06:31;;;;;;;;;11.00;11.00;;;;;20.74;54.49;101393.00;5056598;28;45355;-50
2021/08/27 08:08:57;;;;;;;;;13.00;9.00;;;;;20.78;54.45;101405.38;5056316;28;45575;-54
2021/08/27 08:11:22;;;;;;;;;6.00;6.00;;;;;20.78;53.67;101398.13;5057438;28;45673;-54
2021/08/27 08:13:48;;;;;;;;;8.00;6.67;;;;;20.79;53.67;101401.72;5055641;28;45437;-53
2021/08/27 08:16:13;;;;;;;;;6.67;5.67;;;;;20.80;53.72;101392.66;5054891;28;48581;-55
2021/08/27 08:18:40;;;;;;;;;9.33;9.33;;;;;20.81;53.73;101402.50;5055125;28;45483;-53
2021/08/27 08:21:06;;;;;;;;;7.33;7.00;;;;;20.81;53.46;101400.66;5039695;28;45378;-54
2021/08/27 08:23:32;;;;;;;;;10.33;9.00;;;;;20.80;52.93;101403.44;5057962;28;45613;-54
2021/08/27 08:25:58;;;;;;;;;6.67;6.67;;;;;20.78;52.41;101397.28;5057801;28;48280;-55
2021/08/27 08:28:24;;;;;;;;;9.67;7.67;;;;;20.77;53.17;101401.78;5036307;28;45341;-53
2021/08/27 08:30:51;;;;;;;;;10.33;8.33;;;;;20.78;52.51;101405.38;5055158;28;45383;-54
2021/08/27 08:33:16;;;;;;;;;8.33;6.67;;;;;20.74;52.30;101401.97;5056386;28;45471;-53
2021/08/27 08:35:42;;;;;;;;;8.00;8.00;;;;;20.69;52.00;101409.41;5056564;28;45497;-54
2021/08/27 08:38:07;;;;;;;;;6.33;6.33;;;;;20.64;52.40;101407.91;5057342;28;45357;-55
2021/08/27 08:40:41;;;;;;;;;6.00;5.00;;;;;20.57;52.49;101410.91;5058063;28;45343;-53
2021/08/27 08:43:08;;;;;;;;;5.00;5.00;;;;;20.55;52.06;101409.25;5054698;28;45572;-54
2021/08/27 08:45:36;;;;;;;;;6.33;5.33;;;;;20.52;51.90;101409.44;5061732;28;46089;-54
2021/08/27 08:48:04;;;;;;;;;4.67;4.67;;;;;20.50;51.85;101405.94;5060662;28;45352;-53
2021/08/27 08:50:30;;;;;;;;;6.33;5.67;;;;;20.49;51.91;101409.59;5060958;28;45633;-54
2021/08/27 08:52:56;;;;;;;;;4.33;4.33;;;;;20.48;52.18;101405.16;5060658;28;45946;-54
2021/08/27 08:55:22;;;;;;;;;6.00;6.00;;;;;20.47;51.66;101411.50;5061156;28;48151;-55
2021/08/27 08:57:48;;;;;;;;;8.00;6.33;;;;;20.48;51.68;101410.56;5061111;28;45662;-53
2021/08/27 09:00:14;;;;;;;;;6.00;6.00;;;;;20.50;52.13;101408.66;5063755;28;45318;-55
2021/08/27 09:02:39;;;;;;;;;6.00;6.00;;;;;20.49;51.72;101415.88;5059069;28;45456;-54
2021/08/27 09:05:05;;;;;;;;;6.00;6.00;;;;;20.50;51.90;101414.03;5061385;28;45396;-53
2021/08/27 09:07:31;;;;;;;;;8.00;8.00;;;;;20.51;52.14;101413.09;5076361;28;45495;-58
2021/08/27 09:09:58;;;;;;;;;6.00;6.00;;;;;20.53;52.52;101412.03;5059052;28;45507;-59
2021/08/27 09:12:26;;;;;;;;;7.33;7.00;;;;;20.58;52.13;101419.88;5060526;28;46415;-58
2021/08/27 09:15:01;;;;;;;;;5.00;5.00;;;;;20.62;51.71;101409.84;5056529;28;47376;-58
2021/08/27 09:17:32;;;;;;;;;7.33;7.33;;;;;20.67;51.99;101413.16;5057177;28;45624;-58
2021/08/27 09:19:58;;;;;;;;;5.00;5.00;;;;;20.73;51.72;101412.84;5061729;28;45429;-58
2021/08/27 09:22:24;;;;;;;;;8.67;6.67;;;;;20.78;52.23;101417.03;5054051;28;45732;-58
2021/08/27 09:25:10;;;;;;;;;9.00;8.33;;;;;20.88;52.30;101416.53;5061363;28;45406;-58
2021/08/27 09:27:56;;;;;;;;;5.00;5.00;;;;;20.94;51.67;101418.91;5057229;28;45657;-58
2021/08/27 09:30:22;;;;;;;;;6.00;6.00;;;;;20.98;51.76;101418.66;5058106;28;45380;-57
2021/08/27 09:32:47;;;;;;;;;8.67;6.67;;;;;21.04;51.30;101409.34;5059419;28;45416;-56
2021/08/27 09:35:16;;;;;;;;;4.00;4.00;;;;;21.12;51.36;101415.22;5092149;27;47475;-57
2021/08/27 09:37:42;;;;;;;;;3.33;3.33;;;;;21.20;50.87;101418.34;5061139;28;45857;-59
2021/08/27 09:40:09;;;;;;;;;6.00;6.00;;;;;21.29;50.71;101419.72;5061056;28;45357;-57
2021/08/27 09:42:39;;;;;;;;;5.00;5.00;;;;;21.37;49.89;101426.44;5060898;28;45417;-57
2021/08/27 09:45:05;;;;;;;;;5.00;5.00;;;;;21.44;50.52;101429.66;5090659;27;48211;-56
2021/08/27 09:47:31;;;;;;;;;4.00;4.00;;;;;21.51;49.88;101430.22;5058823;28;46111;-57
2021/08/27 09:49:56;;;;;;;;;5.00;4.00;;;;;21.53;49.82;101422.88;5052790;28;45480;-55
2021/08/27 09:52:22;;;;;;;;;5.67;5.67;;;;;21.56;49.48;101414.59;5054560;28;45494;-57
2021/08/27 09:54:48;;;;;;;;;7.00;4.33;;;;;21.60;49.18;101414.38;5058341;27;46764;-58
2021/08/27 09:57:26;;;;;;;;;3.33;3.33;;;;;21.70;49.01;101417.38;5061823;28;45433;-58
2021/08/27 09:59:52;;;;;;;;;4.00;4.00;;;;;21.77;48.98;101426.91;5065614;28;45416;-58
2021/08/27 10:02:33;;;;;;;;;6.33;4.67;;;;;21.86;48.30;101425.50;5072935;28;45663;-58
2021/08/27 10:05:02;;;;;;;;;2.00;2.00;;;;;21.91;47.42;101424.28;5074022;27;46668;-55
2021/08/27 10:07:34;;;;;;;;;3.33;3.33;;;;;21.95;47.89;101420.44;5059069;28;45385;-56
2021/08/27 10:10:02;;;;;;;;;1.67;1.67;;;;;21.97;47.81;101413.09;5057046;28;45436;-57
2021/08/27 10:12:31;;;;;;;;;1.33;1.33;;;;;22.01;47.00;101408.41;5060496;28;45436;-57
2021/08/27 10:14:57;;;;;;;;;2.00;2.00;;;;;22.03;47.20;101407.34;5091765;27;47084;-57
2021/08/27 10:17:23;;;;;;;;;4.00;3.00;;;;;22.10;47.38;101407.88;5058244;28;45345;-57
2021/08/27 10:19:49;;;;;;;;;2.00;2.00;;;;;22.15;46.84;101410.31;5058861;28;45334;-57
2021/08/27 10:22:15;;;;;;;;;2.00;2.00;;;;;22.15;46.02;101407.63;5059234;28;45675;-57
2021/08/27 10:24:43;;;;;;;;;1.33;1.33;;;;;22.14;46.41;101411.28;5059821;28;45447;-57
2021/08/27 10:27:11;;;;;;;;;3.67;3.67;;;;;22.17;46.37;101411.09;5056738;27;45375;-56
2021/08/27 10:29:56;;;;;;;;;2.00;2.00;;;;;22.22;46.10;101406.28;5059499;28;45590;-57
2021/08/27 10:32:40;;;;;;;;;3.33;2.67;;;;;22.27;46.15;101412.31;5059080;28;45728;-65
2021/08/27 10:35:25;;;;;;;;;0.00;0.00;;;;;22.31;45.75;101405.75;5092931;27;47085;-57
2021/08/27 10:37:53;;;;;;;;;1.33;1.33;;;;;22.36;45.06;101403.66;5059017;28;45278;-56
2021/08/27 10:40:22;;;;;;;;;2.00;2.00;;;;;22.35;45.26;101401.88;5059421;28;45291;-52
2021/08/27 10:42:49;;;;;;;;;3.00;3.00;;;;;22.34;44.97;101397.44;5057773;28;45385;-53
2021/08/27 10:45:16;;;;;;;;;2.67;2.67;;;;;22.33;44.58;101399.28;5044720;28;48194;-54
2021/08/27 10:48:06;;;;;;;;;3.33;2.00;;;;;22.33;44.38;101401.09;5047572;28;45761;-49
2021/08/27 10:50:32;;;;;;;;;3.00;3.00;;;;;22.36;44.33;101402.75;5054880;28;45249;-50
2021/08/27 10:53:37;;;;;;;;;3.33;2.00;;;;;22.48;44.75;101404.72;5057078;28;45477;-55
2021/08/27 10:56:29;;;;;;;;;1.00;1.00;;;;;22.60;43.64;101412.97;5037533;28;46651;-54
2021/08/27 10:58:55;;;;;;;;;2.00;1.67;;;;;22.67;43.39;101412.59;5039605;28;45985;-53
2021/08/27 11:01:35;;;;;;;;;1.00;1.00;;;;;22.71;42.92;101412.31;5048025;28;45836;-51
2021/08/27 11:04:23;;;;;;;;;5.00;1.33;;;;;22.70;42.86;101398.88;5061113;28;45366;-52
2021/08/27 11:06:51;;;;;;;;;2.00;2.00;;;;;22.72;42.99;101405.94;5052386;28;47801;-50
2021/08/27 11:09:25;;;;;;;;;1.00;1.00;;;;;22.75;42.99;101400.34;5059405;28;45374;-51
2021/08/27 11:12:12;;;;;;;;;1.00;1.00;;;;;22.75;42.30;101402.19;5056511;28;45349;-52
2021/08/27 11:14:40;;;;;;;;;2.67;2.67;;;;;22.68;42.40;101404.38;5055831;28;45605;-53
2021/08/27 11:17:07;;;;;;;;;1.00;1.00;;;;;22.58;42.86;101404.06;5052399;28;47552;-54
2021/08/27 11:19:35;;;;;;;;;3.33;3.00;;;;;22.52;43.01;101403.59;5049481;27;48844;-57
2021/08/27 11:22:09;;;;;;;;;3.00;2.00;;;;;22.41;42.90;101400.66;5059033;28;45390;-53
2021/08/27 11:24:36;;;;;;;;;3.00;3.00;;;;;22.30;42.87;101401.31;5060344;27;45814;-53
2021/08/27 11:27:03;;;;;;;;;1.33;1.00;;;;;22.23;43.30;101406.22;5059946;28;48144;-54